sensor_id;sensor_type;location;lat;lon;timestamp;P1;P2;P0
54320;PMS5003;40219;55.838;-4.266;2022-07-03T00:02:14;6;5;
54320;PMS5003;40219;55.838;-4.266;2022-07-03T00:04:41;4;4;
54320;PMS5003;40219;55.838;-4.266;2022-07-03T00:07:08;8;4;
54320;PMS5003;40219;55.838;-4.266;2022-07-03T00:09:35;3;3;
54320;PMS5003;40219;55.838;-4.266;2022-07-03T00:12:03;6;4;
54320;PMS5003;40219;55.838;-4.266;2022-07-03T00:14:31;4;4;
54320;PMS5003;40219;55.838;-4.266;2022-07-03T00:16:59;4;4;
54320;PMS5003;40219;55.838;-4.266;2022-07-03T00:19:26;4;4;
54320;PMS5003;40219;55.838;-4.266;2022-07-03T00:21:56;8;5;
54320;PMS5003;40219;55.838;-4.266;2022-07-03T00:24:28;5;4;
54320;PMS5003;40219;55.838;-4.266;2022-07-03T00:26:59;3;3;
54320;PMS5003;40219;55.838;-4.266;2022-07-03T00:29:30;4;4;
54320;PMS5003;40219;55.838;-4.266;2022-07-03T00:32:02;2;2;
54320;PMS5003;40219;55.838;-4.266;2022-07-03T00:34:33;3;2;
54320;PMS5003;40219;55.838;-4.266;2022-07-03T00:37:00;5;4;
54320;PMS5003;40219;55.838;-4.266;2022-07-03T00:39:28;5;4;
54320;PMS5003;40219;55.838;-4.266;2022-07-03T00:41:59;5;3;
54320;PMS5003;40219;55.838;-4.266;2022-07-03T00:44:28;6;5;
54320;PMS5003;40219;55.838;-4.266;2022-07-03T00:46:57;6;4;
54320;PMS5003;40219;55.838;-4.266;2022-07-03T00:49:25;5;4;
54320;PMS5003;40219;55.838;-4.266;2022-07-03T00:51:53;5;4;
54320;PMS5003;40219;55.838;-4.266;2022-07-03T00:54:22;4;4;
54320;PMS5003;40219;55.838;-4.266;2022-07-03T00:56:51;3;2;
54320;PMS5003;40219;55.838;-4.266;2022-07-03T00:59:21;4;2;
54320;PMS5003;40219;55.838;-4.266;2022-07-03T01:01:49;2;2;
54320;PMS5003;40219;55.838;-4.266;2022-07-03T01:04:28;1;1;
54320;PMS5003;40219;55.838;-4.266;2022-07-03T01:07:16;4;4;
54320;PMS5003;40219;55.838;-4.266;2022-07-03T01:09:54;3;3;
54320;PMS5003;40219;55.838;-4.266;2022-07-03T01:12:33;2;2;
54320;PMS5003;40219;55.838;-4.266;2022-07-03T01:15:12;3;2;
54320;PMS5003;40219;55.838;-4.266;2022-07-03T01:17:48;1;1;
54320;PMS5003;40219;55.838;-4.266;2022-07-03T01:20:27;2;2;
54320;PMS5003;40219;55.838;-4.266;2022-07-03T01:22:57;2;2;
54320;PMS5003;40219;55.838;-4.266;2022-07-03T01:25:26;3;3;
54320;PMS5003;40219;55.838;-4.266;2022-07-03T01:28:08;2;2;
54320;PMS5003;40219;55.838;-4.266;2022-07-03T01:30:40;1;1;
54320;PMS5003;40219;55.838;-4.266;2022-07-03T01:33:15;3;2;
54320;PMS5003;40219;55.838;-4.266;2022-07-03T01:35:47;3;3;
54320;PMS5003;40219;55.838;-4.266;2022-07-03T01:38:24;3;3;
54320;PMS5003;40219;55.838;-4.266;2022-07-03T01:40:55;5;5;
54320;PMS5003;40219;55.838;-4.266;2022-07-03T01:43:25;7;4;
54320;PMS5003;40219;55.838;-4.266;2022-07-03T01:45:56;7;6;
54320;PMS5003;40219;55.838;-4.266;2022-07-03T01:48:24;6;6;
54320;PMS5003;40219;55.838;-4.266;2022-07-03T01:50:53;9;7;
54320;PMS5003;40219;55.838;-4.266;2022-07-03T01:53:23;7;7;
54320;PMS5003;40219;55.838;-4.266;2022-07-03T01:55:54;10;10;
54320;PMS5003;40219;55.838;-4.266;2022-07-03T01:58:22;8;8;
54320;PMS5003;40219;55.838;-4.266;2022-07-03T02:00:51;11;11;
54320;PMS5003;40219;55.838;-4.266;2022-07-03T02:03:28;9;8;
54320;PMS5003;40219;55.838;-4.266;2022-07-03T02:06:00;8;7;
54320;PMS5003;40219;55.838;-4.266;2022-07-03T02:08:35;10;9;
54320;PMS5003;40219;55.838;-4.266;2022-07-03T02:11:10;8;8;
54320;PMS5003;40219;55.838;-4.266;2022-07-03T02:13:51;6;6;
54320;PMS5003;40219;55.838;-4.266;2022-07-03T02:16:27;8;8;
54320;PMS5003;40219;55.838;-4.266;2022-07-03T02:18:58;7;7;
54320;PMS5003;40219;55.838;-4.266;2022-07-03T02:21:30;5;5;
54320;PMS5003;40219;55.838;-4.266;2022-07-03T02:24:02;6;6;
54320;PMS5003;40219;55.838;-4.266;2022-07-03T02:26:40;4;3;
54320;PMS5003;40219;55.838;-4.266;2022-07-03T02:29:11;3;3;
54320;PMS5003;40219;55.838;-4.266;2022-07-03T02:31:42;4;4;
54320;PMS5003;40219;55.838;-4.266;2022-07-03T02:34:12;5;2;
54320;PMS5003;40219;55.838;-4.266;2022-07-03T02:36:45;4;3;
54320;PMS5003;40219;55.838;-4.266;2022-07-03T02:39:14;4;4;
54320;PMS5003;40219;55.838;-4.266;2022-07-03T02:41:50;3;2;
54320;PMS5003;40219;55.838;-4.266;2022-07-03T02:44:25;5;4;
54320;PMS5003;40219;55.838;-4.266;2022-07-03T02:47:00;6;4;
54320;PMS5003;40219;55.838;-4.266;2022-07-03T02:49:38;7;5;
54320;PMS5003;40219;55.838;-4.266;2022-07-03T02:52:27;5;4;
54320;PMS5003;40219;55.838;-4.266;2022-07-03T02:55:00;6;6;
54320;PMS5003;40219;55.838;-4.266;2022-07-03T02:57:37;7;5;
54320;PMS5003;40219;55.838;-4.266;2022-07-03T03:00:07;4;4;
54320;PMS5003;40219;55.838;-4.266;2022-07-03T03:02:40;6;6;
54320;PMS5003;40219;55.838;-4.266;2022-07-03T03:05:21;6;6;
54320;PMS5003;40219;55.838;-4.266;2022-07-03T03:07:59;4;3;
54320;PMS5003;40219;55.838;-4.266;2022-07-03T03:10:33;7;5;
54320;PMS5003;40219;55.838;-4.266;2022-07-03T03:13:02;4;4;
54320;PMS5003;40219;55.838;-4.266;2022-07-03T03:15:31;3;3;
54320;PMS5003;40219;55.838;-4.266;2022-07-03T03:18:01;3;3;
54320;PMS5003;40219;55.838;-4.266;2022-07-03T03:20:30;4;3;
54320;PMS5003;40219;55.838;-4.266;2022-07-03T03:23:03;2;2;
54320;PMS5003;40219;55.838;-4.266;2022-07-03T03:25:38;2;2;
54320;PMS5003;40219;55.838;-4.266;2022-07-03T03:28:06;4;3;
54320;PMS5003;40219;55.838;-4.266;2022-07-03T03:30:34;1;1;
54320;PMS5003;40219;55.838;-4.266;2022-07-03T03:33:02;2;2;
54320;PMS5003;40219;55.838;-4.266;2022-07-03T03:35:29;1;1;
54320;PMS5003;40219;55.838;-4.266;2022-07-03T03:37:57;2;2;
54320;PMS5003;40219;55.838;-4.266;2022-07-03T03:40:23;0;0;
54320;PMS5003;40219;55.838;-4.266;2022-07-03T03:42:50;1;1;
54320;PMS5003;40219;55.838;-4.266;2022-07-03T03:45:18;1;1;
54320;PMS5003;40219;55.838;-4.266;2022-07-03T03:47:45;2;2;
54320;PMS5003;40219;55.838;-4.266;2022-07-03T03:50:12;3;1;
54320;PMS5003;40219;55.838;-4.266;2022-07-03T03:52:39;0;0;
54320;PMS5003;40219;55.838;-4.266;2022-07-03T03:55:07;1;1;
54320;PMS5003;40219;55.838;-4.266;2022-07-03T03:57:35;2;1;
54320;PMS5003;40219;55.838;-4.266;2022-07-03T04:00:03;0;0;
54320;PMS5003;40219;55.838;-4.266;2022-07-03T04:02:32;1;1;
54320;PMS5003;40219;55.838;-4.266;2022-07-03T04:05:00;2;2;
54320;PMS5003;40219;55.838;-4.266;2022-07-03T04:07:27;2;2;
54320;PMS5003;40219;55.838;-4.266;2022-07-03T04:09:56;0;0;
54320;PMS5003;40219;55.838;-4.266;2022-07-03T04:12:23;0;0;
54320;PMS5003;40219;55.838;-4.266;2022-07-03T04:14:50;0;0;
54320;PMS5003;40219;55.838;-4.266;2022-07-03T04:17:18;2;2;
54320;PMS5003;40219;55.838;-4.266;2022-07-03T04:19:46;3;3;
54320;PMS5003;40219;55.838;-4.266;2022-07-03T04:22:14;0;0;
54320;PMS5003;40219;55.838;-4.266;2022-07-03T04:24:42;1;1;
54320;PMS5003;40219;55.838;-4.266;2022-07-03T04:27:10;1;1;
54320;PMS5003;40219;55.838;-4.266;2022-07-03T04:29:38;2;2;
54320;PMS5003;40219;55.838;-4.266;2022-07-03T04:32:06;0;0;
54320;PMS5003;40219;55.838;-4.266;2022-07-03T04:34:33;1;1;
54320;PMS5003;40219;55.838;-4.266;2022-07-03T04:37:01;1;1;
54320;PMS5003;40219;55.838;-4.266;2022-07-03T04:39:29;2;2;
54320;PMS5003;40219;55.838;-4.266;2022-07-03T04:41:57;2;2;
54320;PMS5003;40219;55.838;-4.266;2022-07-03T04:44:25;1;1;
54320;PMS5003;40219;55.838;-4.266;2022-07-03T04:46:53;0;0;
54320;PMS5003;40219;55.838;-4.266;2022-07-03T04:49:21;0;0;
54320;PMS5003;40219;55.838;-4.266;2022-07-03T04:51:48;3;2;
54320;PMS5003;40219;55.838;-4.266;2022-07-03T04:54:15;0;0;
54320;PMS5003;40219;55.838;-4.266;2022-07-03T04:56:42;2;1;
54320;PMS5003;40219;55.838;-4.266;2022-07-03T04:59:09;0;0;
54320;PMS5003;40219;55.838;-4.266;2022-07-03T05:01:36;1;0;
54320;PMS5003;40219;55.838;-4.266;2022-07-03T05:04:03;2;2;
54320;PMS5003;40219;55.838;-4.266;2022-07-03T05:06:30;1;1;
54320;PMS5003;40219;55.838;-4.266;2022-07-03T05:08:58;0;0;
54320;PMS5003;40219;55.838;-4.266;2022-07-03T05:11:25;0;0;
54320;PMS5003;40219;55.838;-4.266;2022-07-03T05:13:53;1;1;
54320;PMS5003;40219;55.838;-4.266;2022-07-03T05:16:20;1;1;
54320;PMS5003;40219;55.838;-4.266;2022-07-03T05:18:47;3;3;
54320;PMS5003;40219;55.838;-4.266;2022-07-03T05:21:14;2;1;
54320;PMS5003;40219;55.838;-4.266;2022-07-03T05:23:41;2;2;
54320;PMS5003;40219;55.838;-4.266;2022-07-03T05:26:08;1;1;
54320;PMS5003;40219;55.838;-4.266;2022-07-03T05:28:35;0;0;
54320;PMS5003;40219;55.838;-4.266;2022-07-03T05:31:02;1;1;
54320;PMS5003;40219;55.838;-4.266;2022-07-03T05:33:29;0;0;
54320;PMS5003;40219;55.838;-4.266;2022-07-03T05:35:56;2;2;
54320;PMS5003;40219;55.838;-4.266;2022-07-03T05:38:24;2;1;
54320;PMS5003;40219;55.838;-4.266;2022-07-03T05:40:52;2;1;
54320;PMS5003;40219;55.838;-4.266;2022-07-03T05:43:18;2;0;
54320;PMS5003;40219;55.838;-4.266;2022-07-03T05:45:45;5;4;
54320;PMS5003;40219;55.838;-4.266;2022-07-03T05:48:12;1;1;
54320;PMS5003;40219;55.838;-4.266;2022-07-03T05:50:39;1;1;
54320;PMS5003;40219;55.838;-4.266;2022-07-03T05:53:06;3;3;
54320;PMS5003;40219;55.838;-4.266;2022-07-03T05:55:33;2;2;
54320;PMS5003;40219;55.838;-4.266;2022-07-03T05:58:01;2;2;
54320;PMS5003;40219;55.838;-4.266;2022-07-03T06:00:29;4;3;
54320;PMS5003;40219;55.838;-4.266;2022-07-03T06:02:57;3;3;
54320;PMS5003;40219;55.838;-4.266;2022-07-03T06:05:25;1;1;
54320;PMS5003;40219;55.838;-4.266;2022-07-03T06:07:53;2;2;
54320;PMS5003;40219;55.838;-4.266;2022-07-03T06:10:21;2;2;
54320;PMS5003;40219;55.838;-4.266;2022-07-03T06:12:48;1;1;
54320;PMS5003;40219;55.838;-4.266;2022-07-03T06:15:17;1;1;
54320;PMS5003;40219;55.838;-4.266;2022-07-03T06:17:44;2;2;
54320;PMS5003;40219;55.838;-4.266;2022-07-03T06:20:12;3;2;
54320;PMS5003;40219;55.838;-4.266;2022-07-03T06:22:41;3;1;
54320;PMS5003;40219;55.838;-4.266;2022-07-03T06:25:08;5;1;
54320;PMS5003;40219;55.838;-4.266;2022-07-03T06:27:35;4;3;
54320;PMS5003;40219;55.838;-4.266;2022-07-03T06:30:02;1;1;
54320;PMS5003;40219;55.838;-4.266;2022-07-03T06:32:31;2;2;
54320;PMS5003;40219;55.838;-4.266;2022-07-03T06:34:58;2;2;
54320;PMS5003;40219;55.838;-4.266;2022-07-03T06:37:25;1;1;
54320;PMS5003;40219;55.838;-4.266;2022-07-03T06:39:53;4;4;
54320;PMS5003;40219;55.838;-4.266;2022-07-03T06:42:20;3;3;
54320;PMS5003;40219;55.838;-4.266;2022-07-03T06:44:47;1;1;
54320;PMS5003;40219;55.838;-4.266;2022-07-03T06:47:14;1;1;
54320;PMS5003;40219;55.838;-4.266;2022-07-03T06:49:41;4;4;
54320;PMS5003;40219;55.838;-4.266;2022-07-03T06:52:08;2;2;
54320;PMS5003;40219;55.838;-4.266;2022-07-03T06:54:35;4;4;
54320;PMS5003;40219;55.838;-4.266;2022-07-03T06:57:02;2;2;
54320;PMS5003;40219;55.838;-4.266;2022-07-03T06:59:30;7;4;
54320;PMS5003;40219;55.838;-4.266;2022-07-03T07:01:57;3;3;
54320;PMS5003;40219;55.838;-4.266;2022-07-03T07:04:25;4;2;
54320;PMS5003;40219;55.838;-4.266;2022-07-03T07:06:53;3;3;
54320;PMS5003;40219;55.838;-4.266;2022-07-03T07:09:21;1;1;
54320;PMS5003;40219;55.838;-4.266;2022-07-03T07:11:49;4;3;
54320;PMS5003;40219;55.838;-4.266;2022-07-03T07:14:17;3;3;
54320;PMS5003;40219;55.838;-4.266;2022-07-03T07:16:45;3;3;
54320;PMS5003;40219;55.838;-4.266;2022-07-03T07:19:12;4;4;
54320;PMS5003;40219;55.838;-4.266;2022-07-03T07:21:40;6;3;
54320;PMS5003;40219;55.838;-4.266;2022-07-03T07:24:08;3;3;
54320;PMS5003;40219;55.838;-4.266;2022-07-03T07:26:36;5;3;
54320;PMS5003;40219;55.838;-4.266;2022-07-03T07:29:04;3;3;
54320;PMS5003;40219;55.838;-4.266;2022-07-03T07:31:31;3;2;
54320;PMS5003;40219;55.838;-4.266;2022-07-03T07:33:59;3;3;
54320;PMS5003;40219;55.838;-4.266;2022-07-03T07:36:28;3;3;
54320;PMS5003;40219;55.838;-4.266;2022-07-03T07:38:57;6;4;
54320;PMS5003;40219;55.838;-4.266;2022-07-03T07:41:25;3;2;
54320;PMS5003;40219;55.838;-4.266;2022-07-03T07:43:52;3;3;
54320;PMS5003;40219;55.838;-4.266;2022-07-03T07:46:19;4;3;
54320;PMS5003;40219;55.838;-4.266;2022-07-03T07:48:47;5;4;
54320;PMS5003;40219;55.838;-4.266;2022-07-03T07:51:14;3;3;
54320;PMS5003;40219;55.838;-4.266;2022-07-03T07:53:41;3;3;
54320;PMS5003;40219;55.838;-4.266;2022-07-03T07:56:09;2;2;
54320;PMS5003;40219;55.838;-4.266;2022-07-03T07:58:36;6;3;
54320;PMS5003;40219;55.838;-4.266;2022-07-03T08:01:03;4;4;
54320;PMS5003;40219;55.838;-4.266;2022-07-03T08:03:30;3;3;
54320;PMS5003;40219;55.838;-4.266;2022-07-03T08:05:57;3;3;
54320;PMS5003;40219;55.838;-4.266;2022-07-03T08:08:24;3;3;
54320;PMS5003;40219;55.838;-4.266;2022-07-03T08:10:51;4;3;
54320;PMS5003;40219;55.838;-4.266;2022-07-03T08:13:19;3;3;
54320;PMS5003;40219;55.838;-4.266;2022-07-03T08:15:47;3;3;
54320;PMS5003;40219;55.838;-4.266;2022-07-03T08:18:15;4;4;
54320;PMS5003;40219;55.838;-4.266;2022-07-03T08:20:42;4;4;
54320;PMS5003;40219;55.838;-4.266;2022-07-03T08:23:10;3;3;
54320;PMS5003;40219;55.838;-4.266;2022-07-03T08:25:38;3;2;
54320;PMS5003;40219;55.838;-4.266;2022-07-03T08:28:06;5;4;
54320;PMS5003;40219;55.838;-4.266;2022-07-03T08:30:34;4;3;
54320;PMS5003;40219;55.838;-4.266;2022-07-03T08:33:02;3;3;
54320;PMS5003;40219;55.838;-4.266;2022-07-03T08:35:30;2;2;
54320;PMS5003;40219;55.838;-4.266;2022-07-03T08:37:57;5;4;
54320;PMS5003;40219;55.838;-4.266;2022-07-03T08:40:24;5;4;
54320;PMS5003;40219;55.838;-4.266;2022-07-03T08:42:53;3;3;
54320;PMS5003;40219;55.838;-4.266;2022-07-03T08:45:22;4;4;
54320;PMS5003;40219;55.838;-4.266;2022-07-03T08:47:53;3;3;
54320;PMS5003;40219;55.838;-4.266;2022-07-03T08:50:21;3;2;
54320;PMS5003;40219;55.838;-4.266;2022-07-03T08:52:48;7;4;
54320;PMS5003;40219;55.838;-4.266;2022-07-03T08:55:17;3;2;
54320;PMS5003;40219;55.838;-4.266;2022-07-03T08:57:47;8;6;
54320;PMS5003;40219;55.838;-4.266;2022-07-03T09:00:15;3;3;
54320;PMS5003;40219;55.838;-4.266;2022-07-03T09:02:44;2;2;
54320;PMS5003;40219;55.838;-4.266;2022-07-03T09:05:13;4;4;
54320;PMS5003;40219;55.838;-4.266;2022-07-03T09:07:43;2;2;
54320;PMS5003;40219;55.838;-4.266;2022-07-03T09:10:13;5;5;
54320;PMS5003;40219;55.838;-4.266;2022-07-03T09:12:42;3;3;
54320;PMS5003;40219;55.838;-4.266;2022-07-03T09:15:11;3;3;
54320;PMS5003;40219;55.838;-4.266;2022-07-03T09:17:39;3;3;
54320;PMS5003;40219;55.838;-4.266;2022-07-03T09:20:07;4;3;
54320;PMS5003;40219;55.838;-4.266;2022-07-03T09:22:36;6;4;
54320;PMS5003;40219;55.838;-4.266;2022-07-03T09:25:04;3;3;
54320;PMS5003;40219;55.838;-4.266;2022-07-03T09:27:34;5;3;
54320;PMS5003;40219;55.838;-4.266;2022-07-03T09:30:04;5;5;
54320;PMS5003;40219;55.838;-4.266;2022-07-03T09:32:41;3;3;
54320;PMS5003;40219;55.838;-4.266;2022-07-03T09:35:12;5;3;
54320;PMS5003;40219;55.838;-4.266;2022-07-03T09:37:47;1;1;
54320;PMS5003;40219;55.838;-4.266;2022-07-03T09:40:16;5;4;
54320;PMS5003;40219;55.838;-4.266;2022-07-03T09:42:56;2;2;
54320;PMS5003;40219;55.838;-4.266;2022-07-03T09:45:24;5;3;
54320;PMS5003;40219;55.838;-4.266;2022-07-03T09:47:53;6;3;
54320;PMS5003;40219;55.838;-4.266;2022-07-03T09:50:20;4;2;
54320;PMS5003;40219;55.838;-4.266;2022-07-03T09:52:48;3;3;
54320;PMS5003;40219;55.838;-4.266;2022-07-03T09:55:17;4;4;
54320;PMS5003;40219;55.838;-4.266;2022-07-03T09:57:47;4;4;
54320;PMS5003;40219;55.838;-4.266;2022-07-03T10:00:26;5;3;
54320;PMS5003;40219;55.838;-4.266;2022-07-03T10:02:57;2;2;
54320;PMS5003;40219;55.838;-4.266;2022-07-03T10:05:27;3;3;
54320;PMS5003;40219;55.838;-4.266;2022-07-03T10:07:56;7;3;
54320;PMS5003;40219;55.838;-4.266;2022-07-03T10:10:26;4;4;
54320;PMS5003;40219;55.838;-4.266;2022-07-03T10:12:55;2;2;
54320;PMS5003;40219;55.838;-4.266;2022-07-03T10:15:24;3;3;
54320;PMS5003;40219;55.838;-4.266;2022-07-03T10:17:54;4;2;
54320;PMS5003;40219;55.838;-4.266;2022-07-03T10:20:25;4;3;
54320;PMS5003;40219;55.838;-4.266;2022-07-03T10:22:54;4;1;
54320;PMS5003;40219;55.838;-4.266;2022-07-03T10:25:22;3;3;
54320;PMS5003;40219;55.838;-4.266;2022-07-03T10:27:49;6;3;
54320;PMS5003;40219;55.838;-4.266;2022-07-03T10:30:18;3;3;
54320;PMS5003;40219;55.838;-4.266;2022-07-03T10:32:46;3;3;
54320;PMS5003;40219;55.838;-4.266;2022-07-03T10:35:16;4;4;
54320;PMS5003;40219;55.838;-4.266;2022-07-03T10:37:56;5;3;
54320;PMS5003;40219;55.838;-4.266;2022-07-03T10:40:53;2;2;
54320;PMS5003;40219;55.838;-4.266;2022-07-03T10:43:26;5;5;
54320;PMS5003;40219;55.838;-4.266;2022-07-03T10:46:13;3;3;
54320;PMS5003;40219;55.838;-4.266;2022-07-03T10:48:57;2;2;
54320;PMS5003;40219;55.838;-4.266;2022-07-03T10:51:27;5;3;
54320;PMS5003;40219;55.838;-4.266;2022-07-03T10:54:13;3;3;
54320;PMS5003;40219;55.838;-4.266;2022-07-03T10:57:16;5;5;
54320;PMS5003;40219;55.838;-4.266;2022-07-03T11:00:00;4;4;
54320;PMS5003;40219;55.838;-4.266;2022-07-03T11:02:33;3;3;
54320;PMS5003;40219;55.838;-4.266;2022-07-03T11:05:04;3;3;
54320;PMS5003;40219;55.838;-4.266;2022-07-03T11:07:38;3;2;
54320;PMS5003;40219;55.838;-4.266;2022-07-03T11:10:42;3;2;
54320;PMS5003;40219;55.838;-4.266;2022-07-03T11:13:12;4;4;
54320;PMS5003;40219;55.838;-4.266;2022-07-03T11:15:42;7;7;
54320;PMS5003;40219;55.838;-4.266;2022-07-03T11:18:14;2;2;
54320;PMS5003;40219;55.838;-4.266;2022-07-03T11:21:21;4;3;
54320;PMS5003;40219;55.838;-4.266;2022-07-03T11:24:05;3;3;
54320;PMS5003;40219;55.838;-4.266;2022-07-03T11:27:12;3;3;
54320;PMS5003;40219;55.838;-4.266;2022-07-03T11:29:52;5;5;
54320;PMS5003;40219;55.838;-4.266;2022-07-03T11:32:54;5;5;
54320;PMS5003;40219;55.838;-4.266;2022-07-03T11:35:54;2;2;
54320;PMS5003;40219;55.838;-4.266;2022-07-03T11:38:24;4;4;
54320;PMS5003;40219;55.838;-4.266;2022-07-03T11:40:58;4;4;
54320;PMS5003;40219;55.838;-4.266;2022-07-03T11:43:28;5;5;
54320;PMS5003;40219;55.838;-4.266;2022-07-03T11:45:56;2;2;
54320;PMS5003;40219;55.838;-4.266;2022-07-03T11:48:25;4;2;
54320;PMS5003;40219;55.838;-4.266;2022-07-03T11:50:58;3;3;
54320;PMS5003;40219;55.838;-4.266;2022-07-03T11:53:27;5;3;
54320;PMS5003;40219;55.838;-4.266;2022-07-03T11:55:56;3;3;
54320;PMS5003;40219;55.838;-4.266;2022-07-03T11:58:26;2;2;
54320;PMS5003;40219;55.838;-4.266;2022-07-03T12:01:08;4;4;
54320;PMS5003;40219;55.838;-4.266;2022-07-03T12:03:36;6;3;
54320;PMS5003;40219;55.838;-4.266;2022-07-03T12:06:03;3;3;
54320;PMS5003;40219;55.838;-4.266;2022-07-03T12:08:32;5;2;
54320;PMS5003;40219;55.838;-4.266;2022-07-03T12:11:03;1;1;
54320;PMS5003;40219;55.838;-4.266;2022-07-03T12:13:34;2;2;
54320;PMS5003;40219;55.838;-4.266;2022-07-03T12:16:04;3;1;
54320;PMS5003;40219;55.838;-4.266;2022-07-03T12:18:42;2;2;
54320;PMS5003;40219;55.838;-4.266;2022-07-03T12:21:10;4;3;
54320;PMS5003;40219;55.838;-4.266;2022-07-03T12:23:42;4;3;
54320;PMS5003;40219;55.838;-4.266;2022-07-03T12:26:11;5;4;
54320;PMS5003;40219;55.838;-4.266;2022-07-03T12:28:39;4;4;
54320;PMS5003;40219;55.838;-4.266;2022-07-03T12:31:07;2;2;
54320;PMS5003;40219;55.838;-4.266;2022-07-03T12:33:34;1;1;
54320;PMS5003;40219;55.838;-4.266;2022-07-03T12:36:03;3;3;
54320;PMS5003;40219;55.838;-4.266;2022-07-03T12:38:32;2;2;
54320;PMS5003;40219;55.838;-4.266;2022-07-03T12:41:07;3;3;
54320;PMS5003;40219;55.838;-4.266;2022-07-03T12:43:37;5;5;
54320;PMS5003;40219;55.838;-4.266;2022-07-03T12:46:14;3;3;
54320;PMS5003;40219;55.838;-4.266;2022-07-03T12:48:45;1;1;
54320;PMS5003;40219;55.838;-4.266;2022-07-03T12:51:14;4;2;
54320;PMS5003;40219;55.838;-4.266;2022-07-03T12:53:43;4;4;
54320;PMS5003;40219;55.838;-4.266;2022-07-03T12:56:21;4;4;
54320;PMS5003;40219;55.838;-4.266;2022-07-03T12:58:49;3;3;
54320;PMS5003;40219;55.838;-4.266;2022-07-03T13:01:24;2;2;
54320;PMS5003;40219;55.838;-4.266;2022-07-03T13:03:53;8;7;
54320;PMS5003;40219;55.838;-4.266;2022-07-03T13:06:21;5;4;
54320;PMS5003;40219;55.838;-4.266;2022-07-03T13:08:50;4;4;
54320;PMS5003;40219;55.838;-4.266;2022-07-03T13:11:28;4;4;
54320;PMS5003;40219;55.838;-4.266;2022-07-03T13:14:04;3;3;
54320;PMS5003;40219;55.838;-4.266;2022-07-03T13:16:37;4;4;
54320;PMS5003;40219;55.838;-4.266;2022-07-03T13:19:07;3;3;
54320;PMS5003;40219;55.838;-4.266;2022-07-03T13:21:37;5;4;
54320;PMS5003;40219;55.838;-4.266;2022-07-03T13:24:06;5;4;
54320;PMS5003;40219;55.838;-4.266;2022-07-03T13:26:34;3;3;
54320;PMS5003;40219;55.838;-4.266;2022-07-03T13:29:01;7;3;
54320;PMS5003;40219;55.838;-4.266;2022-07-03T13:31:29;3;3;
54320;PMS5003;40219;55.838;-4.266;2022-07-03T13:33:58;4;3;
54320;PMS5003;40219;55.838;-4.266;2022-07-03T13:36:26;7;3;
54320;PMS5003;40219;55.838;-4.266;2022-07-03T13:38:55;4;4;
54320;PMS5003;40219;55.838;-4.266;2022-07-03T13:41:22;4;3;
54320;PMS5003;40219;55.838;-4.266;2022-07-03T13:43:51;5;3;
54320;PMS5003;40219;55.838;-4.266;2022-07-03T13:46:19;6;4;
54320;PMS5003;40219;55.838;-4.266;2022-07-03T13:48:48;3;3;
54320;PMS5003;40219;55.838;-4.266;2022-07-03T13:51:16;6;4;
54320;PMS5003;40219;55.838;-4.266;2022-07-03T13:53:44;2;2;
54320;PMS5003;40219;55.838;-4.266;2022-07-03T13:56:13;5;5;
54320;PMS5003;40219;55.838;-4.266;2022-07-03T13:58:40;4;4;
54320;PMS5003;40219;55.838;-4.266;2022-07-03T14:01:13;7;5;
54320;PMS5003;40219;55.838;-4.266;2022-07-03T14:03:41;4;3;
54320;PMS5003;40219;55.838;-4.266;2022-07-03T14:06:09;3;2;
54320;PMS5003;40219;55.838;-4.266;2022-07-03T14:08:37;4;2;
54320;PMS5003;40219;55.838;-4.266;2022-07-03T14:11:04;4;2;
54320;PMS5003;40219;55.838;-4.266;2022-07-03T14:13:33;3;3;
54320;PMS5003;40219;55.838;-4.266;2022-07-03T14:16:00;2;2;
54320;PMS5003;40219;55.838;-4.266;2022-07-03T14:18:28;2;2;
54320;PMS5003;40219;55.838;-4.266;2022-07-03T14:20:56;0;0;
54320;PMS5003;40219;55.838;-4.266;2022-07-03T14:23:24;2;2;
54320;PMS5003;40219;55.838;-4.266;2022-07-03T14:25:51;0;0;
54320;PMS5003;40219;55.838;-4.266;2022-07-03T14:28:19;0;0;
54320;PMS5003;40219;55.838;-4.266;2022-07-03T14:30:47;2;2;
54320;PMS5003;40219;55.838;-4.266;2022-07-03T14:33:15;1;1;
54320;PMS5003;40219;55.838;-4.266;2022-07-03T14:35:44;1;1;
54320;PMS5003;40219;55.838;-4.266;2022-07-03T14:38:12;3;3;
54320;PMS5003;40219;55.838;-4.266;2022-07-03T14:40:40;2;1;
54320;PMS5003;40219;55.838;-4.266;2022-07-03T14:43:08;2;1;
54320;PMS5003;40219;55.838;-4.266;2022-07-03T14:45:36;0;0;
54320;PMS5003;40219;55.838;-4.266;2022-07-03T14:48:04;1;1;
54320;PMS5003;40219;55.838;-4.266;2022-07-03T14:50:31;0;0;
54320;PMS5003;40219;55.838;-4.266;2022-07-03T14:52:59;1;1;
54320;PMS5003;40219;55.838;-4.266;2022-07-03T14:55:28;2;2;
54320;PMS5003;40219;55.838;-4.266;2022-07-03T14:58:04;2;2;
54320;PMS5003;40219;55.838;-4.266;2022-07-03T15:00:36;2;2;
54320;PMS5003;40219;55.838;-4.266;2022-07-03T15:03:11;2;2;
54320;PMS5003;40219;55.838;-4.266;2022-07-03T15:05:43;1;1;
54320;PMS5003;40219;55.838;-4.266;2022-07-03T15:08:15;3;2;
54320;PMS5003;40219;55.838;-4.266;2022-07-03T15:11:12;3;3;
54320;PMS5003;40219;55.838;-4.266;2022-07-03T15:13:41;4;2;
54320;PMS5003;40219;55.838;-4.266;2022-07-03T15:16:09;4;2;
54320;PMS5003;40219;55.838;-4.266;2022-07-03T15:18:37;2;2;
54320;PMS5003;40219;55.838;-4.266;2022-07-03T15:21:06;2;2;
54320;PMS5003;40219;55.838;-4.266;2022-07-03T15:23:34;0;0;
54320;PMS5003;40219;55.838;-4.266;2022-07-03T15:26:02;3;1;
54320;PMS5003;40219;55.838;-4.266;2022-07-03T15:28:30;3;2;
54320;PMS5003;40219;55.838;-4.266;2022-07-03T15:30:59;2;1;
54320;PMS5003;40219;55.838;-4.266;2022-07-03T15:33:27;2;2;
54320;PMS5003;40219;55.838;-4.266;2022-07-03T15:35:57;2;2;
54320;PMS5003;40219;55.838;-4.266;2022-07-03T15:38:27;1;1;
54320;PMS5003;40219;55.838;-4.266;2022-07-03T15:41:03;2;1;
54320;PMS5003;40219;55.838;-4.266;2022-07-03T15:43:44;1;1;
54320;PMS5003;40219;55.838;-4.266;2022-07-03T15:46:29;1;1;
54320;PMS5003;40219;55.838;-4.266;2022-07-03T15:49:13;1;1;
54320;PMS5003;40219;55.838;-4.266;2022-07-03T15:51:52;2;1;
54320;PMS5003;40219;55.838;-4.266;2022-07-03T15:54:31;2;1;
54320;PMS5003;40219;55.838;-4.266;2022-07-03T15:57:06;1;1;
54320;PMS5003;40219;55.838;-4.266;2022-07-03T15:59:42;3;1;
54320;PMS5003;40219;55.838;-4.266;2022-07-03T16:02:15;1;0;
54320;PMS5003;40219;55.838;-4.266;2022-07-03T16:04:58;2;1;
54320;PMS5003;40219;55.838;-4.266;2022-07-03T16:07:34;3;1;
54320;PMS5003;40219;55.838;-4.266;2022-07-03T16:10:09;1;1;
54320;PMS5003;40219;55.838;-4.266;2022-07-03T16:12:38;2;2;
54320;PMS5003;40219;55.838;-4.266;2022-07-03T16:15:08;2;2;
54320;PMS5003;40219;55.838;-4.266;2022-07-03T16:17:35;2;2;
54320;PMS5003;40219;55.838;-4.266;2022-07-03T16:20:04;3;1;
54320;PMS5003;40219;55.838;-4.266;2022-07-03T16:22:33;1;1;
54320;PMS5003;40219;55.838;-4.266;2022-07-03T16:25:02;1;1;
54320;PMS5003;40219;55.838;-4.266;2022-07-03T16:27:32;1;1;
54320;PMS5003;40219;55.838;-4.266;2022-07-03T16:30:00;3;1;
54320;PMS5003;40219;55.838;-4.266;2022-07-03T16:32:32;0;0;
54320;PMS5003;40219;55.838;-4.266;2022-07-03T16:35:03;4;3;
54320;PMS5003;40219;55.838;-4.266;2022-07-03T16:37:37;3;1;
54320;PMS5003;40219;55.838;-4.266;2022-07-03T16:40:10;0;0;
54320;PMS5003;40219;55.838;-4.266;2022-07-03T16:42:39;2;1;
54320;PMS5003;40219;55.838;-4.266;2022-07-03T16:45:11;3;2;
54320;PMS5003;40219;55.838;-4.266;2022-07-03T16:47:41;4;2;
54320;PMS5003;40219;55.838;-4.266;2022-07-03T16:50:11;1;1;
54320;PMS5003;40219;55.838;-4.266;2022-07-03T16:52:41;2;1;
54320;PMS5003;40219;55.838;-4.266;2022-07-03T16:55:12;2;2;
54320;PMS5003;40219;55.838;-4.266;2022-07-03T16:55:34;2;2;